Florence, Wisconsin
Current Conditions -  °F | °C
As of 3:54 AM on Friday 24 Oct 2014 (Local Time) from KIMT Reporting Station
Haze Haze  
Wind Chill: 41°   Ceiling: 200
Heat Index: 45°   Visibility: 5mi
Dew Point: 43°   Wind: 8mph
Humidity: 93%   Direction: 300°WNW
Pressure: 29.98"   Gusts: NA
Location:  45.92°N, 88.25°W
Report Text: KIMT 240854Z AUTO 30007KT 5SM BR OVC002 07/06 A2998 RMK AO2 SLP161 T00720061 58002
Loading
Personal Weather Stations






























Interactive Weather Map
Tropical Storm Tracking
New forecast layout! Learn more

10-Day Weather Forecast

Advertisements
Track Severe Weather on mobile